sensor_id;sensor_type;location;lat;lon;timestamp;temperature;humidity
45329;DHT22;72636;48.160;11.428;2023-10-31T00:00:20;11.10;99.90
45329;DHT22;72636;48.160;11.428;2023-10-31T00:02:46;11.20;99.90
45329;DHT22;72636;48.160;11.428;2023-10-31T00:05:11;11.10;99.90
45329;DHT22;72636;48.160;11.428;2023-10-31T00:07:37;11.10;99.90
45329;DHT22;72636;48.160;11.428;2023-10-31T00:10:03;11.10;99.90
45329;DHT22;72636;48.160;11.428;2023-10-31T00:12:28;11.00;99.90
45329;DHT22;72636;48.160;11.428;2023-10-31T00:14:54;11.00;99.90
45329;DHT22;72636;48.160;11.428;2023-10-31T00:17:19;10.90;99.90
45329;DHT22;72636;48.160;11.428;2023-10-31T00:19:45;10.90;99.90
45329;DHT22;72636;48.160;11.428;2023-10-31T00:22:11;10.90;99.90
45329;DHT22;72636;48.160;11.428;2023-10-31T00:24:36;10.80;99.90
45329;DHT22;72636;48.160;11.428;2023-10-31T00:27:02;10.80;99.90
45329;DHT22;72636;48.160;11.428;2023-10-31T00:29:28;10.70;99.90
45329;DHT22;72636;48.160;11.428;2023-10-31T00:31:53;10.70;99.90
45329;DHT22;72636;48.160;11.428;2023-10-31T00:34:19;10.70;99.90
45329;DHT22;72636;48.160;11.428;2023-10-31T00:36:45;10.70;99.90
45329;DHT22;72636;48.160;11.428;2023-10-31T00:39:11;10.60;99.90
45329;DHT22;72636;48.160;11.428;2023-10-31T00:41:37;10.60;99.90
45329;DHT22;72636;48.160;11.428;2023-10-31T00:44:03;10.60;99.90
45329;DHT22;72636;48.160;11.428;2023-10-31T00:46:28;10.60;99.90
45329;DHT22;72636;48.160;11.428;2023-10-31T00:48:54;10.50;99.90
45329;DHT22;72636;48.160;11.428;2023-10-31T00:51:20;10.60;99.90
45329;DHT22;72636;48.160;11.428;2023-10-31T00:53:46;10.50;99.90
45329;DHT22;72636;48.160;11.428;2023-10-31T00:56:11;10.50;99.90
45329;DHT22;72636;48.160;11.428;2023-10-31T00:58:37;10.50;99.90
45329;DHT22;72636;48.160;11.428;2023-10-31T01:01:03;10.50;99.90
45329;DHT22;72636;48.160;11.428;2023-10-31T01:03:28;10.50;99.90
45329;DHT22;72636;48.160;11.428;2023-10-31T01:05:54;10.50;99.90
45329;DHT22;72636;48.160;11.428;2023-10-31T01:08:19;10.50;99.90
45329;DHT22;72636;48.160;11.428;2023-10-31T01:10:45;10.50;99.90
45329;DHT22;72636;48.160;11.428;2023-10-31T01:13:11;10.50;99.90
45329;DHT22;72636;48.160;11.428;2023-10-31T01:15:37;10.50;99.90
45329;DHT22;72636;48.160;11.428;2023-10-31T01:18:02;10.50;99.90
45329;DHT22;72636;48.160;11.428;2023-10-31T01:20:28;10.50;99.90
45329;DHT22;72636;48.160;11.428;2023-10-31T01:22:53;10.50;99.90
45329;DHT22;72636;48.160;11.428;2023-10-31T01:25:19;10.50;99.90
45329;DHT22;72636;48.160;11.428;2023-10-31T01:27:45;10.50;99.90
45329;DHT22;72636;48.160;11.428;2023-10-31T01:30:11;10.50;99.90
45329;DHT22;72636;48.160;11.428;2023-10-31T01:32:36;10.50;99.90
45329;DHT22;72636;48.160;11.428;2023-10-31T01:35:02;10.40;99.90
45329;DHT22;72636;48.160;11.428;2023-10-31T01:37:29;10.40;99.90
45329;DHT22;72636;48.160;11.428;2023-10-31T01:39:55;10.40;99.90
45329;DHT22;72636;48.160;11.428;2023-10-31T01:42:20;10.40;99.90
45329;DHT22;72636;48.160;11.428;2023-10-31T01:44:46;10.50;99.90
45329;DHT22;72636;48.160;11.428;2023-10-31T01:47:12;10.50;99.90
45329;DHT22;72636;48.160;11.428;2023-10-31T01:49:38;10.50;99.90
45329;DHT22;72636;48.160;11.428;2023-10-31T01:52:04;10.50;99.90
45329;DHT22;72636;48.160;11.428;2023-10-31T01:54:31;10.50;99.90
45329;DHT22;72636;48.160;11.428;2023-10-31T01:56:57;10.50;99.90
45329;DHT22;72636;48.160;11.428;2023-10-31T01:59:25;10.50;99.90
45329;DHT22;72636;48.160;11.428;2023-10-31T02:01:51;10.50;99.90
45329;DHT22;72636;48.160;11.428;2023-10-31T02:04:16;10.50;99.90
45329;DHT22;72636;48.160;11.428;2023-10-31T02:06:42;10.40;99.90
45329;DHT22;72636;48.160;11.428;2023-10-31T02:09:08;10.40;99.90
45329;DHT22;72636;48.160;11.428;2023-10-31T02:11:33;10.40;99.90
45329;DHT22;72636;48.160;11.428;2023-10-31T02:14:00;10.40;99.90
45329;DHT22;72636;48.160;11.428;2023-10-31T02:16:26;10.40;99.90
45329;DHT22;72636;48.160;11.428;2023-10-31T02:18:51;10.40;99.90
45329;DHT22;72636;48.160;11.428;2023-10-31T02:21:19;10.40;99.90
45329;DHT22;72636;48.160;11.428;2023-10-31T02:24:02;10.30;99.90
45329;DHT22;72636;48.160;11.428;2023-10-31T02:26:32;10.30;99.90
45329;DHT22;72636;48.160;11.428;2023-10-31T02:28:58;10.30;99.90
45329;DHT22;72636;48.160;11.428;2023-10-31T02:31:25;10.30;99.90
45329;DHT22;72636;48.160;11.428;2023-10-31T02:33:51;10.30;99.90
45329;DHT22;72636;48.160;11.428;2023-10-31T02:36:17;10.20;99.90
45329;DHT22;72636;48.160;11.428;2023-10-31T02:38:43;10.20;99.90
45329;DHT22;72636;48.160;11.428;2023-10-31T02:41:08;10.20;99.90
45329;DHT22;72636;48.160;11.428;2023-10-31T02:43:34;10.20;99.90
45329;DHT22;72636;48.160;11.428;2023-10-31T02:46:00;10.20;99.90
45329;DHT22;72636;48.160;11.428;2023-10-31T02:48:26;10.30;99.90
45329;DHT22;72636;48.160;11.428;2023-10-31T02:50:52;10.20;99.90
45329;DHT22;72636;48.160;11.428;2023-10-31T02:53:18;10.20;99.90
45329;DHT22;72636;48.160;11.428;2023-10-31T02:55:44;10.20;99.90
45329;DHT22;72636;48.160;11.428;2023-10-31T02:58:10;10.10;99.90
45329;DHT22;72636;48.160;11.428;2023-10-31T03:00:36;10.20;99.90
45329;DHT22;72636;48.160;11.428;2023-10-31T03:03:02;10.20;99.90
45329;DHT22;72636;48.160;11.428;2023-10-31T03:05:27;10.20;99.90
45329;DHT22;72636;48.160;11.428;2023-10-31T03:07:53;10.10;99.90
45329;DHT22;72636;48.160;11.428;2023-10-31T03:10:20;10.10;99.90
45329;DHT22;72636;48.160;11.428;2023-10-31T03:12:45;10.10;99.90
45329;DHT22;72636;48.160;11.428;2023-10-31T03:15:11;10.10;99.90
45329;DHT22;72636;48.160;11.428;2023-10-31T03:17:37;10.10;99.90
45329;DHT22;72636;48.160;11.428;2023-10-31T03:20:03;10.10;99.90
45329;DHT22;72636;48.160;11.428;2023-10-31T03:22:28;10.10;99.90
45329;DHT22;72636;48.160;11.428;2023-10-31T03:24:54;10.10;99.90
45329;DHT22;72636;48.160;11.428;2023-10-31T03:27:20;10.10;99.90
45329;DHT22;72636;48.160;11.428;2023-10-31T03:29:45;10.00;99.90
45329;DHT22;72636;48.160;11.428;2023-10-31T03:32:12;10.00;99.90
45329;DHT22;72636;48.160;11.428;2023-10-31T03:34:37;10.00;99.90
45329;DHT22;72636;48.160;11.428;2023-10-31T03:37:04;10.00;99.90
45329;DHT22;72636;48.160;11.428;2023-10-31T03:39:30;10.00;99.90
45329;DHT22;72636;48.160;11.428;2023-10-31T03:41:55;10.00;99.90
45329;DHT22;72636;48.160;11.428;2023-10-31T03:44:21;10.00;99.90
45329;DHT22;72636;48.160;11.428;2023-10-31T03:46:46;10.00;99.90
45329;DHT22;72636;48.160;11.428;2023-10-31T03:49:12;10.00;99.90
45329;DHT22;72636;48.160;11.428;2023-10-31T03:51:38;10.00;99.90
45329;DHT22;72636;48.160;11.428;2023-10-31T03:54:03;10.00;99.90
45329;DHT22;72636;48.160;11.428;2023-10-31T03:56:29;10.00;99.90
45329;DHT22;72636;48.160;11.428;2023-10-31T03:58:55;10.00;99.90
45329;DHT22;72636;48.160;11.428;2023-10-31T04:01:20;10.00;99.90
45329;DHT22;72636;48.160;11.428;2023-10-31T04:03:46;10.00;99.90
45329;DHT22;72636;48.160;11.428;2023-10-31T04:06:12;10.00;99.90
45329;DHT22;72636;48.160;11.428;2023-10-31T04:08:38;10.00;99.90
45329;DHT22;72636;48.160;11.428;2023-10-31T04:11:03;10.00;99.90
45329;DHT22;72636;48.160;11.428;2023-10-31T04:13:29;10.00;99.90
45329;DHT22;72636;48.160;11.428;2023-10-31T04:15:55;10.00;99.90
45329;DHT22;72636;48.160;11.428;2023-10-31T04:18:20;9.90;99.90
45329;DHT22;72636;48.160;11.428;2023-10-31T04:20:46;10.00;99.90
45329;DHT22;72636;48.160;11.428;2023-10-31T04:23:12;10.00;99.90
45329;DHT22;72636;48.160;11.428;2023-10-31T04:25:38;10.00;99.90
45329;DHT22;72636;48.160;11.428;2023-10-31T04:28:03;10.00;99.90
45329;DHT22;72636;48.160;11.428;2023-10-31T04:30:29;10.00;99.90
45329;DHT22;72636;48.160;11.428;2023-10-31T04:32:55;10.00;99.90
45329;DHT22;72636;48.160;11.428;2023-10-31T04:35:20;10.00;99.90
45329;DHT22;72636;48.160;11.428;2023-10-31T04:37:46;10.00;99.90
45329;DHT22;72636;48.160;11.428;2023-10-31T04:40:12;10.00;99.90
45329;DHT22;72636;48.160;11.428;2023-10-31T04:42:41;10.00;99.90
45329;DHT22;72636;48.160;11.428;2023-10-31T04:45:07;9.90;99.90
45329;DHT22;72636;48.160;11.428;2023-10-31T04:47:33;10.00;99.90
45329;DHT22;72636;48.160;11.428;2023-10-31T04:49:59;10.00;99.90
45329;DHT22;72636;48.160;11.428;2023-10-31T04:52:24;9.90;99.90
45329;DHT22;72636;48.160;11.428;2023-10-31T04:54:51;9.90;99.90
45329;DHT22;72636;48.160;11.428;2023-10-31T04:57:17;10.00;99.90
45329;DHT22;72636;48.160;11.428;2023-10-31T04:59:43;10.00;99.90
45329;DHT22;72636;48.160;11.428;2023-10-31T05:02:09;10.00;99.90
45329;DHT22;72636;48.160;11.428;2023-10-31T05:04:38;10.00;99.90
45329;DHT22;72636;48.160;11.428;2023-10-31T05:07:03;10.00;99.90
45329;DHT22;72636;48.160;11.428;2023-10-31T05:09:29;9.90;99.90
45329;DHT22;72636;48.160;11.428;2023-10-31T05:11:54;9.90;99.90
45329;DHT22;72636;48.160;11.428;2023-10-31T05:14:20;10.00;99.90
45329;DHT22;72636;48.160;11.428;2023-10-31T05:16:46;10.00;99.90
45329;DHT22;72636;48.160;11.428;2023-10-31T05:19:12;9.90;99.90
45329;DHT22;72636;48.160;11.428;2023-10-31T05:21:37;9.90;99.90
45329;DHT22;72636;48.160;11.428;2023-10-31T05:24:03;10.00;99.90
45329;DHT22;72636;48.160;11.428;2023-10-31T05:26:29;9.90;99.90
45329;DHT22;72636;48.160;11.428;2023-10-31T05:28:56;9.90;99.90
45329;DHT22;72636;48.160;11.428;2023-10-31T05:31:23;10.00;99.90
45329;DHT22;72636;48.160;11.428;2023-10-31T05:33:50;10.00;99.90
45329;DHT22;72636;48.160;11.428;2023-10-31T05:36:24;9.90;99.90
45329;DHT22;72636;48.160;11.428;2023-10-31T05:38:50;9.90;99.90
45329;DHT22;72636;48.160;11.428;2023-10-31T05:41:15;9.90;99.90
45329;DHT22;72636;48.160;11.428;2023-10-31T05:43:41;9.90;99.90
45329;DHT22;72636;48.160;11.428;2023-10-31T05:46:07;9.90;99.90
45329;DHT22;72636;48.160;11.428;2023-10-31T05:48:37;9.90;99.90
45329;DHT22;72636;48.160;11.428;2023-10-31T05:51:04;9.90;99.90
45329;DHT22;72636;48.160;11.428;2023-10-31T05:53:30;9.90;99.90
45329;DHT22;72636;48.160;11.428;2023-10-31T05:55:58;9.90;99.90
45329;DHT22;72636;48.160;11.428;2023-10-31T05:58:24;9.90;99.90
45329;DHT22;72636;48.160;11.428;2023-10-31T06:00:49;9.90;99.90
45329;DHT22;72636;48.160;11.428;2023-10-31T06:03:15;9.90;99.90
45329;DHT22;72636;48.160;11.428;2023-10-31T06:05:40;9.90;99.90
45329;DHT22;72636;48.160;11.428;2023-10-31T06:08:06;9.90;99.90
45329;DHT22;72636;48.160;11.428;2023-10-31T06:10:32;9.90;99.90
45329;DHT22;72636;48.160;11.428;2023-10-31T06:12:57;9.90;99.90
45329;DHT22;72636;48.160;11.428;2023-10-31T06:15:23;9.90;99.90
45329;DHT22;72636;48.160;11.428;2023-10-31T06:17:48;9.90;99.90
45329;DHT22;72636;48.160;11.428;2023-10-31T06:20:14;9.90;99.90
45329;DHT22;72636;48.160;11.428;2023-10-31T06:22:39;9.90;99.90
45329;DHT22;72636;48.160;11.428;2023-10-31T06:25:05;9.90;99.90
45329;DHT22;72636;48.160;11.428;2023-10-31T06:27:31;9.90;99.90
45329;DHT22;72636;48.160;11.428;2023-10-31T06:29:57;9.90;99.90
45329;DHT22;72636;48.160;11.428;2023-10-31T06:32:22;9.90;99.90
45329;DHT22;72636;48.160;11.428;2023-10-31T06:34:48;9.90;99.90
45329;DHT22;72636;48.160;11.428;2023-10-31T06:37:13;9.90;99.90
45329;DHT22;72636;48.160;11.428;2023-10-31T06:39:39;10.00;99.90
45329;DHT22;72636;48.160;11.428;2023-10-31T06:42:05;9.90;99.90
45329;DHT22;72636;48.160;11.428;2023-10-31T06:44:30;10.00;99.90
45329;DHT22;72636;48.160;11.428;2023-10-31T06:46:56;9.90;99.90
45329;DHT22;72636;48.160;11.428;2023-10-31T06:49:21;9.90;99.90
45329;DHT22;72636;48.160;11.428;2023-10-31T06:51:49;10.00;99.90
45329;DHT22;72636;48.160;11.428;2023-10-31T06:54:15;10.00;99.90
45329;DHT22;72636;48.160;11.428;2023-10-31T06:56:40;9.90;99.90
45329;DHT22;72636;48.160;11.428;2023-10-31T06:59:06;10.00;99.90
45329;DHT22;72636;48.160;11.428;2023-10-31T07:01:32;10.00;99.90
45329;DHT22;72636;48.160;11.428;2023-10-31T07:03:57;10.00;99.90
45329;DHT22;72636;48.160;11.428;2023-10-31T07:06:23;10.00;99.90
45329;DHT22;72636;48.160;11.428;2023-10-31T07:08:48;10.00;99.90
45329;DHT22;72636;48.160;11.428;2023-10-31T07:11:14;10.00;99.90
45329;DHT22;72636;48.160;11.428;2023-10-31T07:13:40;10.00;99.90
45329;DHT22;72636;48.160;11.428;2023-10-31T07:16:06;10.00;99.90
45329;DHT22;72636;48.160;11.428;2023-10-31T07:18:31;10.00;99.90
45329;DHT22;72636;48.160;11.428;2023-10-31T07:20:57;10.00;99.90
45329;DHT22;72636;48.160;11.428;2023-10-31T07:23:23;10.00;99.90
45329;DHT22;72636;48.160;11.428;2023-10-31T07:25:49;10.00;99.90
45329;DHT22;72636;48.160;11.428;2023-10-31T07:28:14;10.00;99.90
45329;DHT22;72636;48.160;11.428;2023-10-31T07:30:40;10.00;99.90
45329;DHT22;72636;48.160;11.428;2023-10-31T07:33:06;10.00;99.90
45329;DHT22;72636;48.160;11.428;2023-10-31T07:35:32;10.00;99.90
45329;DHT22;72636;48.160;11.428;2023-10-31T07:37:57;10.10;99.90
45329;DHT22;72636;48.160;11.428;2023-10-31T07:40:23;10.10;99.90
45329;DHT22;72636;48.160;11.428;2023-10-31T07:42:49;10.10;99.90
45329;DHT22;72636;48.160;11.428;2023-10-31T07:45:14;10.10;99.90
45329;DHT22;72636;48.160;11.428;2023-10-31T07:47:40;10.20;99.90
45329;DHT22;72636;48.160;11.428;2023-10-31T07:50:06;10.30;99.90
45329;DHT22;72636;48.160;11.428;2023-10-31T07:52:31;10.30;99.90
45329;DHT22;72636;48.160;11.428;2023-10-31T07:54:57;10.40;99.90
45329;DHT22;72636;48.160;11.428;2023-10-31T07:57:23;10.40;99.90
45329;DHT22;72636;48.160;11.428;2023-10-31T07:59:48;10.40;99.90
45329;DHT22;72636;48.160;11.428;2023-10-31T08:02:14;10.40;99.90
45329;DHT22;72636;48.160;11.428;2023-10-31T08:04:39;10.40;99.90
45329;DHT22;72636;48.160;11.428;2023-10-31T08:07:05;10.40;99.90
45329;DHT22;72636;48.160;11.428;2023-10-31T08:09:31;10.40;99.90
45329;DHT22;72636;48.160;11.428;2023-10-31T08:11:56;10.40;99.90
45329;DHT22;72636;48.160;11.428;2023-10-31T08:14:22;10.40;99.90
45329;DHT22;72636;48.160;11.428;2023-10-31T08:16:47;10.40;99.90
45329;DHT22;72636;48.160;11.428;2023-10-31T08:19:13;10.40;99.90
45329;DHT22;72636;48.160;11.428;2023-10-31T08:21:40;10.40;99.90
45329;DHT22;72636;48.160;11.428;2023-10-31T08:24:06;10.40;99.90
45329;DHT22;72636;48.160;11.428;2023-10-31T08:26:32;10.50;99.90
45329;DHT22;72636;48.160;11.428;2023-10-31T08:28:58;10.50;99.90
45329;DHT22;72636;48.160;11.428;2023-10-31T08:31:24;10.50;99.90
45329;DHT22;72636;48.160;11.428;2023-10-31T08:33:49;10.50;99.90
45329;DHT22;72636;48.160;11.428;2023-10-31T08:36:15;10.50;99.90
45329;DHT22;72636;48.160;11.428;2023-10-31T08:38:41;10.60;99.90
45329;DHT22;72636;48.160;11.428;2023-10-31T08:41:06;10.60;99.90
45329;DHT22;72636;48.160;11.428;2023-10-31T08:43:32;10.70;99.90
45329;DHT22;72636;48.160;11.428;2023-10-31T08:45:58;10.70;99.90
45329;DHT22;72636;48.160;11.428;2023-10-31T08:48:23;10.70;99.90
45329;DHT22;72636;48.160;11.428;2023-10-31T08:50:49;10.70;99.90
45329;DHT22;72636;48.160;11.428;2023-10-31T08:53:14;10.70;99.90
45329;DHT22;72636;48.160;11.428;2023-10-31T08:55:41;10.80;99.90
45329;DHT22;72636;48.160;11.428;2023-10-31T08:58:13;10.70;99.90
45329;DHT22;72636;48.160;11.428;2023-10-31T09:00:39;10.70;99.90
45329;DHT22;72636;48.160;11.428;2023-10-31T09:03:06;10.70;99.90
45329;DHT22;72636;48.160;11.428;2023-10-31T09:05:33;10.70;99.90
45329;DHT22;72636;48.160;11.428;2023-10-31T09:07:58;10.80;99.90
45329;DHT22;72636;48.160;11.428;2023-10-31T09:10:24;10.80;99.90
45329;DHT22;72636;48.160;11.428;2023-10-31T09:12:50;10.80;99.90
45329;DHT22;72636;48.160;11.428;2023-10-31T09:15:15;10.80;99.90
45329;DHT22;72636;48.160;11.428;2023-10-31T09:17:41;10.80;99.90
45329;DHT22;72636;48.160;11.428;2023-10-31T09:20:07;10.90;99.90
45329;DHT22;72636;48.160;11.428;2023-10-31T09:22:33;10.90;99.90
45329;DHT22;72636;48.160;11.428;2023-10-31T09:24:59;10.90;99.90
45329;DHT22;72636;48.160;11.428;2023-10-31T09:27:24;10.90;99.90
45329;DHT22;72636;48.160;11.428;2023-10-31T09:29:50;10.90;99.90
45329;DHT22;72636;48.160;11.428;2023-10-31T09:32:18;10.90;99.90
45329;DHT22;72636;48.160;11.428;2023-10-31T09:34:43;10.90;99.90
45329;DHT22;72636;48.160;11.428;2023-10-31T09:37:09;10.90;99.90
45329;DHT22;72636;48.160;11.428;2023-10-31T09:39:34;11.00;99.90
45329;DHT22;72636;48.160;11.428;2023-10-31T09:42:00;10.90;99.90
45329;DHT22;72636;48.160;11.428;2023-10-31T09:44:26;10.90;99.90
45329;DHT22;72636;48.160;11.428;2023-10-31T09:46:52;10.90;99.90
45329;DHT22;72636;48.160;11.428;2023-10-31T09:49:18;11.00;99.90
45329;DHT22;72636;48.160;11.428;2023-10-31T09:51:45;10.90;99.90
45329;DHT22;72636;48.160;11.428;2023-10-31T09:54:12;11.00;99.90
45329;DHT22;72636;48.160;11.428;2023-10-31T09:56:41;11.00;99.90
45329;DHT22;72636;48.160;11.428;2023-10-31T09:59:07;11.10;99.90
45329;DHT22;72636;48.160;11.428;2023-10-31T10:01:33;11.10;99.90
45329;DHT22;72636;48.160;11.428;2023-10-31T10:03:59;11.10;99.90
45329;DHT22;72636;48.160;11.428;2023-10-31T10:06:25;11.10;99.90
45329;DHT22;72636;48.160;11.428;2023-10-31T10:08:51;11.10;99.90
45329;DHT22;72636;48.160;11.428;2023-10-31T10:11:17;11.10;99.90
45329;DHT22;72636;48.160;11.428;2023-10-31T10:13:43;11.20;99.90
45329;DHT22;72636;48.160;11.428;2023-10-31T10:16:09;11.20;99.90
45329;DHT22;72636;48.160;11.428;2023-10-31T10:18:36;11.10;99.90
45329;DHT22;72636;48.160;11.428;2023-10-31T10:21:06;11.20;99.90
45329;DHT22;72636;48.160;11.428;2023-10-31T10:23:32;11.20;99.90
45329;DHT22;72636;48.160;11.428;2023-10-31T10:26:01;11.20;99.90
45329;DHT22;72636;48.160;11.428;2023-10-31T10:28:27;11.30;99.90
45329;DHT22;72636;48.160;11.428;2023-10-31T10:30:55;11.30;99.90
45329;DHT22;72636;48.160;11.428;2023-10-31T10:33:21;11.30;99.90
45329;DHT22;72636;48.160;11.428;2023-10-31T10:35:47;11.40;99.90
45329;DHT22;72636;48.160;11.428;2023-10-31T10:38:14;11.40;99.90
45329;DHT22;72636;48.160;11.428;2023-10-31T10:40:41;11.50;99.90
45329;DHT22;72636;48.160;11.428;2023-10-31T10:43:30;11.50;99.90
45329;DHT22;72636;48.160;11.428;2023-10-31T10:45:59;11.60;99.90
45329;DHT22;72636;48.160;11.428;2023-10-31T10:48:26;11.70;99.90
45329;DHT22;72636;48.160;11.428;2023-10-31T10:51:18;11.70;99.90
45329;DHT22;72636;48.160;11.428;2023-10-31T10:53:55;11.70;99.90
45329;DHT22;72636;48.160;11.428;2023-10-31T10:56:46;11.80;99.90
45329;DHT22;72636;48.160;11.428;2023-10-31T10:59:21;11.90;99.90
45329;DHT22;72636;48.160;11.428;2023-10-31T11:01:52;11.90;99.90
45329;DHT22;72636;48.160;11.428;2023-10-31T11:04:18;12.00;99.90
45329;DHT22;72636;48.160;11.428;2023-10-31T11:06:45;12.00;99.90
45329;DHT22;72636;48.160;11.428;2023-10-31T11:09:11;12.10;99.90
45329;DHT22;72636;48.160;11.428;2023-10-31T11:11:39;12.10;99.90
45329;DHT22;72636;48.160;11.428;2023-10-31T11:14:05;12.20;99.90
45329;DHT22;72636;48.160;11.428;2023-10-31T11:16:45;12.20;99.90
45329;DHT22;72636;48.160;11.428;2023-10-31T11:19:13;12.30;99.90
45329;DHT22;72636;48.160;11.428;2023-10-31T11:21:59;12.30;99.90
45329;DHT22;72636;48.160;11.428;2023-10-31T11:24:32;12.40;99.90
45329;DHT22;72636;48.160;11.428;2023-10-31T11:27:00;12.40;99.90
45329;DHT22;72636;48.160;11.428;2023-10-31T11:29:27;12.40;99.90
45329;DHT22;72636;48.160;11.428;2023-10-31T11:31:55;12.50;99.90
45329;DHT22;72636;48.160;11.428;2023-10-31T11:34:31;12.50;99.90
45329;DHT22;72636;48.160;11.428;2023-10-31T11:37:26;12.50;99.90
45329;DHT22;72636;48.160;11.428;2023-10-31T11:40:15;12.60;99.90
45329;DHT22;72636;48.160;11.428;2023-10-31T11:42:41;12.70;99.90
45329;DHT22;72636;48.160;11.428;2023-10-31T11:45:10;12.70;99.90
45329;DHT22;72636;48.160;11.428;2023-10-31T11:47:50;12.80;99.90
45329;DHT22;72636;48.160;11.428;2023-10-31T11:50:17;12.80;99.90
45329;DHT22;72636;48.160;11.428;2023-10-31T11:52:43;12.90;99.90
45329;DHT22;72636;48.160;11.428;2023-10-31T11:55:12;13.00;99.90
45329;DHT22;72636;48.160;11.428;2023-10-31T11:57:41;13.10;99.90
45329;DHT22;72636;48.160;11.428;2023-10-31T12:00:07;13.10;99.90
45329;DHT22;72636;48.160;11.428;2023-10-31T12:02:57;13.20;99.90
45329;DHT22;72636;48.160;11.428;2023-10-31T12:05:23;13.20;99.90
45329;DHT22;72636;48.160;11.428;2023-10-31T12:07:49;13.20;99.90
45329;DHT22;72636;48.160;11.428;2023-10-31T12:10:22;13.30;99.90
45329;DHT22;72636;48.160;11.428;2023-10-31T12:12:49;13.20;99.90
45329;DHT22;72636;48.160;11.428;2023-10-31T12:15:15;13.30;99.90
45329;DHT22;72636;48.160;11.428;2023-10-31T12:17:41;13.20;99.90
45329;DHT22;72636;48.160;11.428;2023-10-31T12:20:08;13.30;99.90
45329;DHT22;72636;48.160;11.428;2023-10-31T12:22:34;13.20;99.90
45329;DHT22;72636;48.160;11.428;2023-10-31T12:25:04;13.10;99.90
45329;DHT22;72636;48.160;11.428;2023-10-31T12:27:47;13.10;99.90
45329;DHT22;72636;48.160;11.428;2023-10-31T12:30:16;13.10;99.90
45329;DHT22;72636;48.160;11.428;2023-10-31T12:32:43;13.10;99.90
45329;DHT22;72636;48.160;11.428;2023-10-31T12:35:14;13.10;99.90
45329;DHT22;72636;48.160;11.428;2023-10-31T12:37:46;13.10;99.90
45329;DHT22;72636;48.160;11.428;2023-10-31T12:40:21;13.00;99.90
45329;DHT22;72636;48.160;11.428;2023-10-31T12:42:47;12.90;99.90
45329;DHT22;72636;48.160;11.428;2023-10-31T12:45:13;12.80;99.90
45329;DHT22;72636;48.160;11.428;2023-10-31T12:47:40;12.70;99.90
45329;DHT22;72636;48.160;11.428;2023-10-31T12:50:13;12.70;99.90
45329;DHT22;72636;48.160;11.428;2023-10-31T12:52:50;12.60;99.90
45329;DHT22;72636;48.160;11.428;2023-10-31T12:55:29;12.50;99.90
45329;DHT22;72636;48.160;11.428;2023-10-31T12:57:56;12.50;99.90
45329;DHT22;72636;48.160;11.428;2023-10-31T13:00:31;12.50;99.90
45329;DHT22;72636;48.160;11.428;2023-10-31T13:03:07;12.40;99.90
45329;DHT22;72636;48.160;11.428;2023-10-31T13:05:37;12.40;99.90
45329;DHT22;72636;48.160;11.428;2023-10-31T13:08:13;12.40;99.90
45329;DHT22;72636;48.160;11.428;2023-10-31T13:10:39;12.30;99.90
45329;DHT22;72636;48.160;11.428;2023-10-31T13:13:05;12.20;99.90
45329;DHT22;72636;48.160;11.428;2023-10-31T13:15:30;12.30;99.90
45329;DHT22;72636;48.160;11.428;2023-10-31T13:17:56;12.20;99.90
45329;DHT22;72636;48.160;11.428;2023-10-31T13:20:23;12.30;99.90
45329;DHT22;72636;48.160;11.428;2023-10-31T13:22:49;12.30;99.90
45329;DHT22;72636;48.160;11.428;2023-10-31T13:25:15;12.30;99.90
45329;DHT22;72636;48.160;11.428;2023-10-31T13:27:41;12.40;99.90
45329;DHT22;72636;48.160;11.428;2023-10-31T13:30:11;12.30;99.90
45329;DHT22;72636;48.160;11.428;2023-10-31T13:32:38;12.30;99.90
45329;DHT22;72636;48.160;11.428;2023-10-31T13:35:05;12.30;99.90
45329;DHT22;72636;48.160;11.428;2023-10-31T13:37:31;12.30;99.90
45329;DHT22;72636;48.160;11.428;2023-10-31T13:39:56;12.30;99.90
45329;DHT22;72636;48.160;11.428;2023-10-31T13:42:22;12.30;99.90
45329;DHT22;72636;48.160;11.428;2023-10-31T13:44:48;12.20;99.90
45329;DHT22;72636;48.160;11.428;2023-10-31T13:47:14;12.10;99.90
45329;DHT22;72636;48.160;11.428;2023-10-31T13:49:40;12.10;99.90
45329;DHT22;72636;48.160;11.428;2023-10-31T13:52:06;12.10;99.90
45329;DHT22;72636;48.160;11.428;2023-10-31T13:54:34;12.10;99.90
45329;DHT22;72636;48.160;11.428;2023-10-31T13:57:00;12.20;99.90
45329;DHT22;72636;48.160;11.428;2023-10-31T13:59:26;12.20;99.90
45329;DHT22;72636;48.160;11.428;2023-10-31T14:01:52;12.10;99.90
45329;DHT22;72636;48.160;11.428;2023-10-31T14:04:18;12.10;99.90
45329;DHT22;72636;48.160;11.428;2023-10-31T14:06:44;12.00;99.90
45329;DHT22;72636;48.160;11.428;2023-10-31T14:09:11;12.00;99.90
45329;DHT22;72636;48.160;11.428;2023-10-31T14:11:37;12.10;99.90
45329;DHT22;72636;48.160;11.428;2023-10-31T14:14:03;12.00;99.90
45329;DHT22;72636;48.160;11.428;2023-10-31T14:16:37;12.10;99.90
45329;DHT22;72636;48.160;11.428;2023-10-31T14:19:07;12.10;99.90
45329;DHT22;72636;48.160;11.428;2023-10-31T14:21:33;12.00;99.90
45329;DHT22;72636;48.160;11.428;2023-10-31T14:24:00;12.00;99.90
45329;DHT22;72636;48.160;11.428;2023-10-31T14:26:26;12.00;99.90
45329;DHT22;72636;48.160;11.428;2023-10-31T14:28:52;12.00;99.90
45329;DHT22;72636;48.160;11.428;2023-10-31T14:31:18;12.00;99.90
45329;DHT22;72636;48.160;11.428;2023-10-31T14:33:46;12.00;99.90
45329;DHT22;72636;48.160;11.428;2023-10-31T14:36:12;12.00;99.90
45329;DHT22;72636;48.160;11.428;2023-10-31T14:38:38;11.90;99.90
45329;DHT22;72636;48.160;11.428;2023-10-31T14:41:04;12.00;99.90
45329;DHT22;72636;48.160;11.428;2023-10-31T14:43:30;12.00;99.90
45329;DHT22;72636;48.160;11.428;2023-10-31T14:45:56;12.00;99.90
45329;DHT22;72636;48.160;11.428;2023-10-31T14:48:22;12.00;99.90
45329;DHT22;72636;48.160;11.428;2023-10-31T14:50:48;11.90;99.90
45329;DHT22;72636;48.160;11.428;2023-10-31T14:53:17;11.90;99.90
45329;DHT22;72636;48.160;11.428;2023-10-31T14:55:45;12.00;99.90
45329;DHT22;72636;48.160;11.428;2023-10-31T14:58:11;12.00;99.90
45329;DHT22;72636;48.160;11.428;2023-10-31T15:00:37;12.00;99.90
45329;DHT22;72636;48.160;11.428;2023-10-31T15:03:06;12.00;99.90
45329;DHT22;72636;48.160;11.428;2023-10-31T15:05:32;11.90;99.90
45329;DHT22;72636;48.160;11.428;2023-10-31T15:07:58;12.00;99.90
45329;DHT22;72636;48.160;11.428;2023-10-31T15:10:24;12.00;99.90
45329;DHT22;72636;48.160;11.428;2023-10-31T15:12:51;11.90;99.90
45329;DHT22;72636;48.160;11.428;2023-10-31T15:15:17;12.00;99.90